Time;durP1;ratioP1;P1;durP2;ratioP2;P2;SDS_P1;SDS_P2;PMS_P1;PMS_P2;Temp;Humidity;BMP_temperature;BMP_pressure;BME280_temperature;BME280_humidity;BME280_pressure;Samples;Min_cycle;Max_cycle;Signal;HPM_P1;HPM_P2
2021/10/14 00:00:38;;;;;;;13.40;6.25;;;12.80;82.00;;;;;;5093732;28;20096;-93
2021/10/14 00:03:05;;;;;;;12.40;6.13;;;12.80;82.20;;;;;;5110661;28;20024;-92
2021/10/14 00:05:32;;;;;;;11.68;5.80;;;12.80;82.50;;;;;;5093695;28;20093;-93
2021/10/14 00:07:57;;;;;;;13.20;5.90;;;12.80;82.50;;;;;;5093512;28;20020;-92
2021/10/14 00:10:23;;;;;;;14.77;6.45;;;12.80;82.40;;;;;;5093929;28;20372;-92
2021/10/14 00:12:49;;;;;;;13.02;5.93;;;12.80;82.60;;;;;;5093356;28;20039;-92
2021/10/14 00:15:15;;;;;;;8.80;5.78;;;12.80;82.50;;;;;;5093243;28;20032;-92
2021/10/14 00:17:41;;;;;;;16.50;7.43;;;12.80;82.60;;;;;;5093570;28;20386;-93
2021/10/14 00:20:08;;;;;;;10.45;7.00;;;12.80;82.50;;;;;;5077024;28;20032;-92
2021/10/14 00:22:34;;;;;;;9.50;5.85;;;12.80;82.40;;;;;;5093525;28;20036;-92
2021/10/14 00:24:59;;;;;;;14.02;5.78;;;12.90;82.40;;;;;;5077021;28;20085;-93
2021/10/14 00:27:25;;;;;;;10.98;5.78;;;12.80;82.40;;;;;;5076868;28;20028;-92
2021/10/14 00:29:51;;;;;;;10.02;6.55;;;12.90;82.50;;;;;;5110249;28;20028;-92
2021/10/14 00:32:17;;;;;;;10.60;5.80;;;12.90;82.50;;;;;;5093084;28;20429;-93
2021/10/14 00:34:42;;;;;;;9.85;5.50;;;12.90;82.50;;;;;;5093358;28;20024;-92
2021/10/14 00:37:08;;;;;;;13.48;6.45;;;12.90;82.50;;;;;;5093237;28;20020;-93
2021/10/14 00:39:34;;;;;;;10.13;6.28;;;12.90;82.40;;;;;;5093583;28;20070;-93
2021/10/14 00:42:00;;;;;;;11.52;6.13;;;13.00;82.40;;;;;;5093154;28;20031;-92
2021/10/14 00:44:25;;;;;;;10.20;5.53;;;13.00;82.30;;;;;;5107625;28;20024;-93
2021/10/14 00:46:56;;;;;;;17.33;6.55;;;13.00;82.40;;;;;;5100356;28;20015;-93
2021/10/14 00:49:22;;;;;;;14.18;6.07;;;13.00;82.30;;;;;;5081665;28;20505;-87
2021/10/14 00:51:48;;;;;;;13.18;7.43;;;13.00;82.30;;;;;;5095071;28;20103;-86
2021/10/14 00:54:17;;;;;;;12.32;6.05;;;13.00;82.30;;;;;;5076180;28;20126;-86
2021/10/14 00:56:45;;;;;;;12.48;6.80;;;13.00;82.30;;;;;;5097618;27;20023;-86
2021/10/14 00:59:11;;;;;;;13.13;7.00;;;13.00;82.40;;;;;;5098807;28;20077;-87
2021/10/14 01:01:37;;;;;;;9.57;7.07;;;13.00;82.40;;;;;;5073066;28;20017;-93
2021/10/14 01:04:05;;;;;;;11.32;7.20;;;13.00;82.40;;;;;;5063076;28;20034;-93
2021/10/14 01:06:31;;;;;;;17.52;7.32;;;13.00;82.50;;;;;;5062894;28;20035;-93
2021/10/14 01:08:58;;;;;;;11.75;7.50;;;13.00;82.60;;;;;;5079743;28;20438;-92
2021/10/14 01:11:24;;;;;;;14.50;7.60;;;13.00;82.70;;;;;;5091798;28;20051;-87
2021/10/14 01:13:50;;;;;;;13.07;7.70;;;13.00;82.80;;;;;;5075932;28;20044;-86
2021/10/14 01:16:16;;;;;;;13.95;7.97;;;13.00;83.00;;;;;;5087633;28;20420;-87
2021/10/14 01:18:41;;;;;;;16.05;9.32;;;13.00;83.20;;;;;;5103596;28;20578;-87
2021/10/14 01:21:08;;;;;;;14.82;8.80;;;12.90;83.20;;;;;;5089226;28;20028;-86
2021/10/14 01:23:34;;;;;;;17.90;11.10;;;12.90;83.20;;;;;;5100129;28;20423;-86
2021/10/14 01:26:02;;;;;;;14.82;9.60;;;12.90;83.30;;;;;;5081832;28;20023;-93
2021/10/14 01:28:28;;;;;;;21.40;11.98;;;12.90;83.40;;;;;;5096692;28;20078;-87
2021/10/14 01:30:53;;;;;;;15.65;11.02;;;12.90;83.60;;;;;;5079178;28;20577;-86
2021/10/14 01:33:19;;;;;;;20.80;12.55;;;12.90;83.60;;;;;;5084810;28;20115;-86
2021/10/14 01:35:45;;;;;;;16.45;12.18;;;12.90;83.70;;;;;;5075298;28;20466;-86
2021/10/14 01:38:10;;;;;;;19.05;12.43;;;12.90;83.70;;;;;;5086775;28;20044;-86
2021/10/14 01:40:36;;;;;;;18.98;12.63;;;12.90;83.70;;;;;;5079564;27;20389;-86
2021/10/14 01:43:02;;;;;;;16.88;12.38;;;12.90;83.80;;;;;;5075900;28;20025;-86
2021/10/14 01:45:28;;;;;;;17.73;13.65;;;12.90;83.80;;;;;;5105998;27;20038;-86
2021/10/14 01:47:53;;;;;;;22.70;13.60;;;12.90;83.90;;;;;;5071530;28;20122;-85
2021/10/14 01:50:19;;;;;;;21.60;16.08;;;12.90;83.80;;;;;;5081274;28;20074;-86
2021/10/14 01:52:45;;;;;;;24.13;15.48;;;12.90;84.10;;;;;;5092779;27;20027;-87
2021/10/14 01:55:11;;;;;;;25.00;17.25;;;12.90;84.10;;;;;;5073599;27;20093;-87
2021/10/14 01:57:36;;;;;;;22.90;16.40;;;12.90;84.30;;;;;;5069338;28;20020;-86
2021/10/14 02:00:04;;;;;;;21.00;15.02;;;12.90;84.40;;;;;;5078601;28;20123;-86
2021/10/14 02:02:30;;;;;;;23.08;16.83;;;12.80;84.50;;;;;;5086433;28;20383;-87
2021/10/14 02:04:56;;;;;;;20.38;16.00;;;12.80;84.50;;;;;;5083602;27;20027;-86
2021/10/14 02:07:21;;;;;;;30.98;17.73;;;12.90;84.70;;;;;;5078374;28;20027;-86
2021/10/14 02:09:47;;;;;;;29.90;17.83;;;12.90;84.70;;;;;;5061861;28;20032;-86
2021/10/14 02:12:13;;;;;;;27.33;18.10;;;12.90;84.80;;;;;;5062024;28;20106;-87
2021/10/14 02:14:38;;;;;;;28.35;18.13;;;12.90;84.80;;;;;;5061468;28;20023;-87
2021/10/14 02:17:04;;;;;;;27.65;18.08;;;12.90;85.30;;;;;;5061592;28;20040;-87
2021/10/14 02:19:30;;;;;;;28.77;18.63;;;12.90;84.80;;;;;;5088477;28;20028;-87
2021/10/14 02:21:56;;;;;;;32.67;20.55;;;12.90;84.90;;;;;;5067035;28;20097;-87
2021/10/14 02:24:22;;;;;;;26.70;17.92;;;12.90;85.00;;;;;;5069002;28;20046;-86
2021/10/14 02:26:48;;;;;;;35.42;20.08;;;12.90;85.00;;;;;;5097058;28;20028;-93
2021/10/14 02:29:14;;;;;;;26.88;19.30;;;12.90;85.20;;;;;;5066254;28;20090;-93
2021/10/14 02:31:40;;;;;;;33.08;21.65;;;12.90;85.30;;;;;;5067795;28;20028;-94
2021/10/14 02:34:07;;;;;;;36.17;20.30;;;12.90;85.40;;;;;;5081991;28;20038;-93
2021/10/14 02:36:34;;;;;;;41.22;22.65;;;12.90;85.40;;;;;;5063454;28;20048;-94
2021/10/14 02:38:59;;;;;;;35.10;22.23;;;12.90;85.50;;;;;;5095004;28;20101;-93
2021/10/14 02:41:25;;;;;;;35.92;22.17;;;12.90;85.60;;;;;;5095461;28;20024;-93
2021/10/14 02:43:51;;;;;;;35.80;22.50;;;12.90;85.60;;;;;;5063878;28;20027;-93
2021/10/14 02:46:17;;;;;;;32.38;23.02;;;13.00;85.60;;;;;;5064475;28;20035;-94
2021/10/14 02:48:42;;;;;;;40.58;23.52;;;13.00;85.70;;;;;;5096279;28;20238;-93
2021/10/14 02:51:08;;;;;;;35.50;22.27;;;12.90;85.70;;;;;;5078985;28;20086;-93
2021/10/14 02:53:34;;;;;;;37.35;22.67;;;12.90;85.80;;;;;;5095648;28;20042;-93
2021/10/14 02:56:00;;;;;;;44.53;24.55;;;13.00;85.90;;;;;;5095727;28;20032;-94
2021/10/14 02:58:25;;;;;;;40.38;25.25;;;13.00;85.90;;;;;;5062788;28;20028;-94
2021/10/14 03:00:51;;;;;;;50.58;26.25;;;13.00;86.20;;;;;;5095349;28;20046;-93
2021/10/14 03:03:17;;;;;;;41.75;23.85;;;13.00;86.30;;;;;;5062679;28;20027;-92
2021/10/14 03:05:43;;;;;;;41.92;24.65;;;13.00;86.40;;;;;;5063345;28;20032;-94
2021/10/14 03:08:08;;;;;;;42.72;25.25;;;13.00;86.40;;;;;;5109869;27;20019;-93
2021/10/14 03:10:34;;;;;;;45.47;25.92;;;13.00;86.50;;;;;;5102701;27;20031;-93
2021/10/14 03:13:18;;;;;;;53.10;27.92;;;12.90;86.50;;;;;;5085969;27;20059;-93
2021/10/14 03:15:44;;;;;;;43.85;26.23;;;12.90;86.70;;;;;;5102474;27;20030;-93
2021/10/14 03:18:10;;;;;;;47.58;25.45;;;12.90;86.70;;;;;;5081447;28;20032;-87
2021/10/14 03:20:36;;;;;;;38.75;24.17;;;12.90;86.70;;;;;;5077355;28;20032;-86
2021/10/14 03:23:02;;;;;;;48.15;28.35;;;12.90;86.80;;;;;;5057493;28;20028;-86
2021/10/14 03:25:27;;;;;;;42.72;26.70;;;12.90;86.80;;;;;;5077253;28;20019;-86
2021/10/14 03:27:53;;;;;;;44.03;25.67;;;12.90;87.00;;;;;;5077392;28;20031;-87
2021/10/14 03:30:19;;;;;;;46.42;27.65;;;12.90;87.30;;;;;;5077429;28;20077;-87
2021/10/14 03:32:45;;;;;;;43.17;26.65;;;12.90;87.30;;;;;;5077336;28;20031;-87
2021/10/14 03:35:10;;;;;;;38.85;25.05;;;12.90;87.40;;;;;;5077067;28;20019;-87
2021/10/14 03:37:36;;;;;;;39.13;24.58;;;12.90;87.50;;;;;;5111385;28;20028;-87
2021/10/14 03:40:02;;;;;;;38.88;23.77;;;12.90;87.50;;;;;;5070808;28;20049;-87
2021/10/14 03:42:28;;;;;;;38.35;24.08;;;12.90;87.50;;;;;;5053141;28;20028;-87
2021/10/14 03:44:56;;;;;;;43.53;25.25;;;12.80;87.50;;;;;;5055333;28;20024;-94
2021/10/14 03:47:24;;;;;;;33.78;23.42;;;12.80;87.60;;;;;;5056460;28;20035;-87
2021/10/14 03:49:50;;;;;;;36.88;26.33;;;12.80;87.60;;;;;;5050911;28;20037;-87
2021/10/14 03:52:16;;;;;;;42.28;24.55;;;12.80;87.90;;;;;;5033831;28;20020;-87
2021/10/14 03:54:49;;;;;;;38.42;24.48;;;12.80;87.90;;;;;;5052886;28;20025;-87
2021/10/14 03:57:16;;;;;;;38.17;25.50;;;12.80;87.90;;;;;;5035752;28;20036;-87
2021/10/14 03:59:41;;;;;;;37.80;26.05;;;12.80;87.80;;;;;;5052478;28;20101;-87
2021/10/14 04:02:07;;;;;;;36.88;24.17;;;12.80;87.80;;;;;;5070606;28;20439;-87
2021/10/14 04:04:33;;;;;;;41.78;27.88;;;12.80;87.80;;;;;;5060555;28;20052;-87
2021/10/14 04:06:59;;;;;;;37.40;25.98;;;12.80;87.90;;;;;;5075256;28;20110;-93
2021/10/14 04:09:25;;;;;;;42.78;26.52;;;12.90;87.90;;;;;;5071887;28;20109;-94
2021/10/14 04:15:13;;;;;;;40.63;26.53;;;12.90;87.80;;;;;;5087515;28;20046;-93
2021/10/14 04:17:44;;;;;;;42.47;27.58;;;12.90;87.60;;;;;;5078507;28;20295;-87
2021/10/14 04:20:10;;;;;;;40.58;26.92;;;12.90;87.70;;;;;;5056140;28;20052;-87
2021/10/14 04:22:36;;;;;;;40.55;28.38;;;12.80;87.70;;;;;;5042069;28;20028;-87
2021/10/14 04:25:02;;;;;;;35.58;26.15;;;12.90;87.80;;;;;;5055048;28;20037;-86
2021/10/14 04:27:28;;;;;;;46.05;29.42;;;12.80;87.70;;;;;;5057277;28;20112;-87
2021/10/14 04:29:53;;;;;;;41.72;29.58;;;12.90;87.70;;;;;;5054970;28;20056;-87
2021/10/14 04:32:20;;;;;;;40.75;30.23;;;12.90;87.70;;;;;;5052005;28;20083;-87
2021/10/14 04:34:45;;;;;;;41.25;29.08;;;12.90;87.70;;;;;;5071340;28;20078;-87
2021/10/14 04:37:11;;;;;;;39.13;27.73;;;12.90;87.70;;;;;;5058378;28;20028;-87
2021/10/14 04:39:38;;;;;;;34.15;26.08;;;12.90;87.70;;;;;;5054215;28;20096;-88
2021/10/14 04:42:06;;;;;;;39.00;29.30;;;12.90;87.70;;;;;;5082676;28;20024;-88
2021/10/14 04:44:31;;;;;;;38.50;27.92;;;12.90;87.70;;;;;;5084986;28;20020;-88
2021/10/14 04:46:57;;;;;;;39.20;30.45;;;12.90;87.70;;;;;;5077319;28;20027;-87
2021/10/14 04:49:23;;;;;;;42.42;28.92;;;12.90;87.80;;;;;;5092375;28;20036;-85
2021/10/14 04:51:49;;;;;;;41.17;28.67;;;12.90;87.70;;;;;;5093119;28;20625;-84
2021/10/14 04:54:14;;;;;;;48.20;30.02;;;12.90;87.70;;;;;;5061786;28;20090;-92
2021/10/14 04:56:40;;;;;;;37.55;29.00;;;12.90;87.80;;;;;;5066744;28;20028;-94
2021/10/14 04:59:06;;;;;;;40.50;29.65;;;12.90;87.70;;;;;;5096035;28;20016;-93
2021/10/14 05:01:31;;;;;;;39.38;27.90;;;12.90;87.70;;;;;;5065268;28;20024;-91
2021/10/14 05:03:57;;;;;;;37.80;29.15;;;12.90;87.70;;;;;;5084225;28;20044;-91
2021/10/14 05:06:23;;;;;;;42.55;31.98;;;12.90;87.80;;;;;;5075111;28;20505;-90
2021/10/14 05:08:49;;;;;;;40.13;29.17;;;12.90;87.90;;;;;;5082403;28;20490;-86
2021/10/14 05:11:15;;;;;;;40.80;30.02;;;12.90;87.90;;;;;;5076717;28;20032;-87
2021/10/14 05:13:40;;;;;;;34.50;26.65;;;12.90;87.80;;;;;;5092308;28;20012;-87
2021/10/14 05:16:06;;;;;;;41.65;28.85;;;12.90;87.90;;;;;;5059796;28;20390;-86
2021/10/14 05:18:33;;;;;;;39.67;28.50;;;12.90;87.80;;;;;;5093715;28;20020;-87
2021/10/14 05:20:59;;;;;;;43.50;30.00;;;12.90;87.80;;;;;;5088322;28;20451;-87
2021/10/14 05:23:25;;;;;;;35.67;26.85;;;12.90;87.80;;;;;;5092973;28;20008;-92
2021/10/14 05:25:51;;;;;;;43.58;30.48;;;12.90;87.90;;;;;;5079673;28;20402;-86
2021/10/14 05:28:16;;;;;;;44.85;30.90;;;12.90;88.10;;;;;;5093569;28;20084;-86
2021/10/14 05:30:42;;;;;;;42.17;28.75;;;12.90;88.10;;;;;;5075364;28;20513;-87
2021/10/14 05:33:08;;;;;;;39.35;28.15;;;12.90;88.10;;;;;;5064013;28;20031;-93
2021/10/14 05:35:34;;;;;;;40.22;29.52;;;12.90;88.20;;;;;;5084862;28;20038;-94
2021/10/14 05:38:01;;;;;;;40.70;30.83;;;12.90;88.30;;;;;;5085224;28;20123;-94
2021/10/14 05:40:28;;;;;;;40.65;29.85;;;12.90;88.50;;;;;;5096622;28;20024;-87
2021/10/14 05:42:53;;;;;;;42.45;28.75;;;12.90;88.50;;;;;;5100059;28;20028;-93
2021/10/14 05:45:19;;;;;;;31.00;25.65;;;12.80;88.50;;;;;;5116794;28;20031;-95
2021/10/14 05:47:45;;;;;;;39.80;28.42;;;12.90;88.50;;;;;;5082690;28;20027;-94
2021/10/14 05:50:11;;;;;;;36.55;26.50;;;12.90;88.60;;;;;;5080475;28;20111;-94
2021/10/14 05:52:37;;;;;;;41.90;31.10;;;12.90;88.50;;;;;;5081504;28;20065;-93
2021/10/14 05:55:03;;;;;;;43.83;30.80;;;12.90;88.70;;;;;;5113828;28;20046;-93
2021/10/14 05:57:28;;;;;;;45.80;32.88;;;12.90;88.70;;;;;;5080908;28;20489;-93
2021/10/14 05:59:55;;;;;;;48.55;32.65;;;12.90;88.90;;;;;;5082567;28;20059;-94
2021/10/14 06:02:22;;;;;;;49.47;32.63;;;12.90;89.00;;;;;;5099946;28;20032;-93
2021/10/14 06:04:48;;;;;;;48.15;33.42;;;12.90;89.10;;;;;;5079830;28;20016;-92
2021/10/14 06:07:14;;;;;;;39.80;31.45;;;12.90;89.20;;;;;;5099172;28;20081;-94
2021/10/14 06:09:40;;;;;;;43.80;31.92;;;12.90;89.20;;;;;;5114872;28;20024;-94
2021/10/14 06:12:06;;;;;;;41.38;32.05;;;12.90;89.20;;;;;;5080039;28;20395;-93
2021/10/14 06:14:32;;;;;;;36.85;27.35;;;12.90;89.80;;;;;;5098213;28;20080;-93
2021/10/14 06:16:58;;;;;;;44.67;31.38;;;12.90;89.20;;;;;;5098539;28;20028;-93
2021/10/14 06:19:24;;;;;;;45.55;32.42;;;12.90;89.20;;;;;;5065405;28;20110;-93
2021/10/14 06:21:49;;;;;;;45.90;30.67;;;12.90;89.30;;;;;;5098442;28;20032;-86
2021/10/14 06:24:15;;;;;;;49.05;33.50;;;12.90;89.50;;;;;;5072518;28;20141;-86
2021/10/14 06:26:41;;;;;;;45.20;30.75;;;12.90;89.50;;;;;;5076401;28;20012;-85
2021/10/14 06:29:07;;;;;;;44.97;30.27;;;12.90;89.60;;;;;;5090186;28;20012;-86
2021/10/14 06:31:32;;;;;;;38.10;24.98;;;12.90;89.60;;;;;;5076263;28;20063;-86
2021/10/14 06:33:58;;;;;;;44.30;31.35;;;12.90;89.50;;;;;;5069489;28;20473;-86
2021/10/14 06:36:25;;;;;;;43.75;30.88;;;12.90;89.60;;;;;;5060910;28;20034;-85
2021/10/14 06:38:51;;;;;;;39.75;29.35;;;12.90;89.60;;;;;;5095094;28;20130;-85
2021/10/14 06:41:17;;;;;;;52.85;34.35;;;13.00;89.70;;;;;;5090788;28;20089;-87
2021/10/14 06:43:42;;;;;;;47.58;33.05;;;12.90;89.90;;;;;;5109765;28;20020;-86
2021/10/14 06:46:08;;;;;;;51.38;32.97;;;13.00;90.00;;;;;;5090598;28;20066;-93
2021/10/14 06:48:34;;;;;;;46.53;32.78;;;12.90;90.00;;;;;;5095905;28;20443;-93
2021/10/14 06:51:00;;;;;;;54.70;35.90;;;12.90;90.00;;;;;;5080533;28;20035;-93
2021/10/14 06:53:26;;;;;;;54.58;36.10;;;12.90;90.10;;;;;;5080802;28;20043;-93
2021/10/14 06:55:52;;;;;;;46.72;32.45;;;12.90;90.10;;;;;;5083936;28;20047;-93
2021/10/14 06:58:17;;;;;;;49.63;34.83;;;12.90;90.20;;;;;;5095714;28;20016;-93
2021/10/14 07:00:43;;;;;;;58.03;36.88;;;12.90;90.20;;;;;;5127054;27;20027;-94
2021/10/14 07:03:09;;;;;;;55.58;35.38;;;12.90;90.20;;;;;;5092779;27;20015;-93
2021/10/14 07:05:35;;;;;;;55.33;34.75;;;12.90;90.20;;;;;;5094490;27;20050;-93
2021/10/14 07:08:01;;;;;;;62.95;36.42;;;13.00;90.20;;;;;;5111816;28;20063;-93
2021/10/14 07:13:49;;;;;;;58.10;36.63;;;13.00;90.20;;;;;;5119685;27;20038;-94
2021/10/14 07:16:14;;;;;;;61.35;36.72;;;13.00;90.30;;;;;;5074721;27;20027;-93
2021/10/14 07:18:40;;;;;;;53.15;34.40;;;13.00;90.60;;;;;;5071723;28;20034;-94
2021/10/14 07:21:08;;;;;;;53.88;34.88;;;13.00;90.40;;;;;;5074205;27;20077;-93
2021/10/14 07:23:34;;;;;;;49.13;31.88;;;13.00;90.40;;;;;;5108834;27;20024;-94
2021/10/14 07:26:00;;;;;;;54.78;34.10;;;13.00;90.40;;;;;;5126382;27;20378;-93
2021/10/14 07:28:25;;;;;;;60.50;37.20;;;13.00;90.40;;;;;;5086007;28;20019;-94
2021/10/14 07:30:54;;;;;;;52.72;33.53;;;13.00;90.40;;;;;;5084099;28;20035;-86
2021/10/14 07:33:20;;;;;;;48.60;33.90;;;13.00;90.40;;;;;;5104046;27;20428;-87
2021/10/14 07:35:46;;;;;;;55.30;35.35;;;13.10;90.40;;;;;;5085333;28;20035;-86
2021/10/14 07:38:12;;;;;;;71.57;39.65;;;13.10;90.40;;;;;;5106758;28;20780;-86
2021/10/14 07:40:41;;;;;;;58.85;35.88;;;13.10;90.40;;;;;;5083672;28;20478;-86
2021/10/14 07:43:08;;;;;;;56.03;35.85;;;13.10;90.40;;;;;;5092838;28;20398;-86
2021/10/14 07:45:34;;;;;;;64.40;37.28;;;13.20;90.40;;;;;;5064661;28;20020;-86
2021/10/14 07:48:00;;;;;;;56.17;34.78;;;13.20;90.40;;;;;;5070550;28;20059;-86
2021/10/14 07:50:26;;;;;;;53.33;35.28;;;13.20;90.40;;;;;;5072702;28;20032;-87
2021/10/14 07:52:52;;;;;;;58.13;36.22;;;13.20;90.40;;;;;;5069778;28;20032;-86
2021/10/14 07:55:18;;;;;;;67.85;38.90;;;13.20;90.40;;;;;;5098798;28;20030;-87
2021/10/14 07:57:44;;;;;;;53.42;36.15;;;13.20;90.40;;;;;;5077397;28;20383;-87
2021/10/14 08:00:11;;;;;;;49.35;33.65;;;13.20;90.40;;;;;;5087222;28;20088;-87
2021/10/14 08:02:36;;;;;;;61.08;37.17;;;13.30;90.40;;;;;;5099234;28;20018;-87
2021/10/14 08:05:03;;;;;;;48.00;34.08;;;13.20;90.40;;;;;;5084074;28;20032;-94
2021/10/14 08:07:29;;;;;;;50.50;33.08;;;13.20;90.40;;;;;;5084481;28;20024;-93
2021/10/14 08:09:55;;;;;;;55.47;33.90;;;13.20;90.40;;;;;;5084144;28;20025;-94
2021/10/14 08:12:22;;;;;;;53.13;35.03;;;13.30;90.50;;;;;;5081785;28;20028;-95
2021/10/14 08:14:48;;;;;;;48.15;34.95;;;13.30;90.50;;;;;;5077864;28;20031;-87
2021/10/14 08:17:14;;;;;;;42.65;30.40;;;13.30;90.50;;;;;;5103621;28;20486;-95
2021/10/14 08:19:39;;;;;;;53.80;37.60;;;13.30;90.50;;;;;;5104333;28;20039;-95
2021/10/14 08:22:05;;;;;;;45.67;35.35;;;13.30;90.50;;;;;;5106550;28;20435;-94
2021/10/14 08:24:31;;;;;;;51.95;36.65;;;13.30;90.50;;;;;;5104982;28;20016;-95
2021/10/14 08:26:57;;;;;;;52.55;36.85;;;13.40;90.60;;;;;;5107198;28;20030;-94
2021/10/14 08:29:22;;;;;;;55.28;37.03;;;13.40;90.60;;;;;;5103793;28;20027;-94
2021/10/14 08:31:48;;;;;;;47.60;33.60;;;13.40;90.50;;;;;;5106836;28;20032;-94
2021/10/14 08:34:14;;;;;;;42.97;33.17;;;13.40;90.50;;;;;;5095310;28;20051;-87
2021/10/14 08:36:41;;;;;;;50.35;36.40;;;13.40;90.50;;;;;;5088321;28;20063;-86
2021/10/14 08:39:06;;;;;;;48.72;29.98;;;13.40;90.50;;;;;;5075724;28;20454;-87
2021/10/14 08:41:32;;;;;;;45.17;34.20;;;13.50;90.50;;;;;;5068721;28;20020;-86
2021/10/14 08:43:59;;;;;;;49.05;33.88;;;13.50;90.50;;;;;;5101371;28;20035;-87
2021/10/14 08:46:25;;;;;;;48.50;36.00;;;13.50;90.40;;;;;;5081532;28;20056;-87
2021/10/14 08:48:51;;;;;;;40.38;33.13;;;13.50;90.40;;;;;;5084197;28;20055;-87
2021/10/14 08:51:16;;;;;;;38.00;29.10;;;13.60;90.40;;;;;;5087135;28;20032;-87
2021/10/14 08:53:45;;;;;;;47.13;34.67;;;13.60;90.40;;;;;;5084030;28;20027;-87
2021/10/14 08:56:11;;;;;;;48.05;35.67;;;13.50;90.40;;;;;;5088703;28;20030;-86
2021/10/14 08:58:37;;;;;;;45.63;30.38;;;13.50;90.40;;;;;;5066049;28;20028;-87
2021/10/14 09:01:15;;;;;;;44.70;30.92;;;13.50;90.40;;;;;;5093844;28;20063;-87
2021/10/14 09:03:49;;;;;;;46.90;33.33;;;13.50;90.50;;;;;;5100687;28;20024;-86
2021/10/14 09:06:16;;;;;;;50.05;34.55;;;13.60;90.50;;;;;;5083356;28;20055;-87
2021/10/14 09:09:01;;;;;;;47.08;33.70;;;13.60;90.50;;;;;;5089323;28;20111;-87
2021/10/14 09:11:28;;;;;;;40.72;30.92;;;13.60;90.50;;;;;;5103129;28;20028;-87
2021/10/14 09:14:03;;;;;;;44.25;33.42;;;13.60;90.50;;;;;;5077159;28;20043;-87
2021/10/14 09:16:39;;;;;;;47.05;34.08;;;13.60;90.40;;;;;;5095292;28;20020;-86
2021/10/14 09:19:20;;;;;;;44.00;31.10;;;13.70;90.50;;;;;;5087923;28;20047;-85
2021/10/14 09:22:01;;;;;;;42.22;32.08;;;13.60;90.40;;;;;;5094301;28;20080;-85
2021/10/14 09:24:39;;;;;;;39.50;31.75;;;13.60;90.30;;;;;;5105699;28;20020;-86
2021/10/14 09:27:11;;;;;;;46.05;32.72;;;13.70;90.40;;;;;;5095720;28;20042;-86
2021/10/14 09:29:38;;;;;;;47.55;32.53;;;13.70;90.40;;;;;;5099056;28;20028;-85
2021/10/14 09:32:05;;;;;;;43.05;31.17;;;13.70;90.40;;;;;;5101137;28;20032;-93
2021/10/14 09:34:34;;;;;;;35.50;26.55;;;13.70;90.40;;;;;;5098052;28;20024;-94
2021/10/14 09:37:04;;;;;;;40.65;30.70;;;13.80;90.40;;;;;;5102600;28;20032;-94
2021/10/14 09:39:30;;;;;;;35.85;28.63;;;13.70;90.30;;;;;;5100403;28;20044;-94
2021/10/14 09:41:58;;;;;;;37.45;28.73;;;13.80;90.30;;;;;;5096592;28;20052;-93
2021/10/14 09:44:25;;;;;;;37.05;29.17;;;13.80;90.30;;;;;;5100565;28;20028;-94
2021/10/14 09:46:56;;;;;;;34.97;27.38;;;13.90;90.30;;;;;;5082900;28;20189;-94
2021/10/14 09:49:32;;;;;;;38.22;28.33;;;13.90;90.30;;;;;;5081144;28;20058;-94
2021/10/14 09:52:00;;;;;;;37.67;27.73;;;14.00;90.20;;;;;;5085535;28;20032;-94
2021/10/14 09:54:32;;;;;;;38.78;30.33;;;14.00;90.10;;;;;;5102656;28;20028;-94
2021/10/14 09:56:58;;;;;;;35.60;27.88;;;14.00;90.00;;;;;;5102465;28;20024;-94
2021/10/14 09:59:24;;;;;;;32.63;27.65;;;14.00;90.00;;;;;;5099139;28;20053;-94
2021/10/14 10:01:54;;;;;;;34.88;26.08;;;14.00;90.00;;;;;;5089024;28;20028;-94
2021/10/14 10:04:26;;;;;;;33.80;25.45;;;14.00;90.00;;;;;;5083257;28;20021;-94
2021/10/14 10:06:57;;;;;;;;;;;14.00;90.00;;;;;;5087494;28;20474;-94
2021/10/14 10:09:25;;;;;;;36.97;28.38;;;14.00;90.00;;;;;;5100634;28;19908;-94
2021/10/14 10:11:55;;;;;;;31.15;25.55;;;14.00;90.00;;;;;;5099553;28;20028;-95
2021/10/14 10:14:25;;;;;;;38.60;28.55;;;14.00;90.10;;;;;;5097790;28;20383;-94
2021/10/14 10:16:57;;;;;;;34.03;27.30;;;14.00;90.10;;;;;;5078899;28;20482;-94
2021/10/14 10:20:02;;;;;;;38.67;28.27;;;14.00;90.10;;;;;;5088897;28;20028;-86
2021/10/14 10:22:34;;;;;;;41.55;30.90;;;14.10;90.00;;;;;;5075480;28;20162;-86
2021/10/14 10:25:23;;;;;;;34.80;25.95;;;14.10;90.10;;;;;;5049056;28;20029;-87
2021/10/14 10:27:51;;;;;;;34.35;28.50;;;14.10;90.10;;;;;;5111167;27;20032;-87
2021/10/14 10:30:35;;;;;;;39.17;28.60;;;14.10;90.10;;;;;;5091493;28;20016;-86
2021/10/14 10:33:02;;;;;;;36.92;28.98;;;14.10;90.10;;;;;;5089955;28;20131;-89
2021/10/14 10:35:46;;;;;;;34.45;28.17;;;14.10;90.20;;;;;;5084389;28;20029;-87
2021/10/14 10:38:14;;;;;;;38.25;30.60;;;14.10;90.20;;;;;;5086352;28;20127;-89
2021/10/14 10:40:41;;;;;;;38.33;30.00;;;14.10;90.20;;;;;;5067873;28;20105;-91
2021/10/14 10:43:09;;;;;;;39.38;29.38;;;14.10;90.20;;;;;;5073178;28;20569;-88
2021/10/14 10:45:41;;;;;;;40.63;30.05;;;14.20;90.20;;;;;;5099633;28;20020;-94
2021/10/14 10:48:07;;;;;;;41.83;30.48;;;14.20;90.20;;;;;;5096776;28;20062;-91
2021/10/14 10:50:33;;;;;;;38.00;30.15;;;14.20;90.20;;;;;;5082092;28;20028;-90
2021/10/14 10:53:17;;;;;;;42.03;31.80;;;14.20;90.20;;;;;;5096514;28;20028;-90
2021/10/14 10:55:45;;;;;;;36.35;28.88;;;14.40;90.30;;;;;;5094857;28;20054;-88
2021/10/14 10:58:13;;;;;;;35.60;28.42;;;14.50;90.10;;;;;;5092558;28;20016;-90
2021/10/14 11:00:44;;;;;;;35.60;29.42;;;14.60;90.00;;;;;;5089007;28;20569;-90
2021/10/14 11:03:18;;;;;;;36.08;28.90;;;14.60;89.40;;;;;;5085438;28;20028;-92
2021/10/14 11:05:53;;;;;;;31.52;25.80;;;14.70;89.30;;;;;;5087986;28;20016;-87
2021/10/14 11:08:38;;;;;;;33.25;28.13;;;14.70;89.40;;;;;;5082740;28;20017;-86
2021/10/14 11:11:12;;;;;;;31.02;24.80;;;14.70;89.20;;;;;;5089039;28;20166;-85
2021/10/14 11:16:26;;;;;;;32.08;28.48;;;14.70;88.70;;;;;;5089368;28;20097;-85
2021/10/14 11:18:52;;;;;;;35.22;28.55;;;14.80;88.60;;;;;;5091224;28;20052;-85
2021/10/14 11:21:20;;;;;;;34.85;27.55;;;14.70;88.40;;;;;;5081062;28;20797;-84
2021/10/14 11:23:55;;;;;;;33.58;28.35;;;14.70;89.00;;;;;;5068819;28;20031;-85
2021/10/14 11:26:32;;;;;;;31.73;28.25;;;14.80;88.20;;;;;;5089481;28;20375;-84
2021/10/14 11:29:05;;;;;;;31.60;26.77;;;14.80;88.30;;;;;;5086422;28;21979;-83
2021/10/14 11:31:33;;;;;;;32.90;26.50;;;14.80;88.50;;;;;;5090869;28;20076;-85
2021/10/14 11:34:22;;;;;;;33.10;27.50;;;14.80;88.40;;;;;;5090750;28;20028;-85
2021/10/14 11:36:57;;;;;;;31.30;26.98;;;14.80;88.30;;;;;;5123773;27;20474;-86
2021/10/14 11:39:31;;;;;;;31.55;27.02;;;14.80;88.20;;;;;;5067132;28;20491;-85
2021/10/14 11:42:09;;;;;;;32.40;26.38;;;14.80;88.10;;;;;;5086929;28;20028;-84
2021/10/14 11:44:36;;;;;;;31.38;26.10;;;14.80;88.00;;;;;;5082303;28;20020;-85
2021/10/14 11:47:08;;;;;;;30.15;24.77;;;14.80;88.20;;;;;;5063242;28;20100;-85
2021/10/14 11:49:34;;;;;;;28.95;24.90;;;14.80;88.20;;;;;;5073769;28;20036;-89
2021/10/14 11:52:02;;;;;;;27.15;23.45;;;15.00;88.20;;;;;;5072101;28;20027;-92
2021/10/14 11:54:30;;;;;;;26.83;21.35;;;15.20;87.90;;;;;;5069831;28;20380;-88
2021/10/14 11:56:56;;;;;;;23.02;20.08;;;15.40;87.40;;;;;;5081846;28;20031;-86
2021/10/14 11:59:27;;;;;;;26.30;21.30;;;15.50;87.00;;;;;;5073057;28;20469;-92
2021/10/14 12:02:12;;;;;;;29.88;22.00;;;15.50;86.50;;;;;;5083234;28;20023;-90
2021/10/14 12:04:49;;;;;;;23.40;20.88;;;15.50;86.20;;;;;;5071636;28;20020;-91
2021/10/14 12:07:20;;;;;;;23.13;17.92;;;15.40;86.80;;;;;;5083982;28;20039;-90
2021/10/14 12:09:46;;;;;;;19.23;17.00;;;15.40;86.30;;;;;;5089273;28;20032;-92
2021/10/14 12:12:20;;;;;;;21.45;16.83;;;15.30;85.90;;;;;;5088540;28;20107;-90
2021/10/14 12:14:46;;;;;;;26.10;18.58;;;15.30;85.70;;;;;;5124197;28;20475;-87
2021/10/14 12:17:14;;;;;;;22.95;20.55;;;15.20;85.50;;;;;;5069786;28;20379;-87
2021/10/14 12:19:47;;;;;;;23.55;20.98;;;15.20;85.80;;;;;;5070721;28;20052;-89
2021/10/14 12:22:17;;;;;;;23.45;20.90;;;15.20;86.00;;;;;;5091012;28;20027;-87
2021/10/14 12:24:59;;;;;;;24.30;20.40;;;15.10;86.20;;;;;;5105230;27;20428;-87
2021/10/14 12:27:48;;;;;;;24.17;20.92;;;15.10;86.30;;;;;;5072038;28;20402;-85
2021/10/14 12:30:22;;;;;;;20.38;18.27;;;15.10;86.30;;;;;;5082875;28;20036;-87
2021/10/14 12:32:49;;;;;;;21.95;17.33;;;15.10;86.10;;;;;;5085444;28;20030;-86
2021/10/14 12:35:15;;;;;;;25.20;20.15;;;15.10;86.10;;;;;;5068899;28;20451;-91
2021/10/14 12:37:41;;;;;;;19.80;17.35;;;15.10;86.20;;;;;;5092446;28;20111;-90
2021/10/14 12:40:20;;;;;;;23.05;18.73;;;15.10;86.20;;;;;;5094593;28;21815;-92